createdAt,value
2023-03-29T00:01:07.500Z,17.50
2023-03-29T00:03:36.489Z,12.30
2023-03-29T00:06:05.688Z,16.80
2023-03-29T00:08:34.268Z,12.60
2023-03-29T00:11:02.853Z,12.20
2023-03-29T00:13:31.326Z,13.70
2023-03-29T00:15:59.680Z,16.30
2023-03-29T00:18:27.959Z,16.60
2023-03-29T00:20:57.941Z,15.50
2023-03-29T00:23:26.553Z,15.80
2023-03-29T00:25:55.817Z,15.40
2023-03-29T00:28:24.964Z,16.70
2023-03-29T00:30:53.599Z,12.50
2023-03-29T00:33:22.821Z,15.60
2023-03-29T00:35:53.350Z,16.80
2023-03-29T00:38:22.005Z,15.70
2023-03-29T00:40:50.282Z,17.30
2023-03-29T00:43:19.070Z,14.70
2023-03-29T00:45:47.417Z,18.00
2023-03-29T00:48:22.031Z,17.50
2023-03-29T00:51:01.762Z,17.80
2023-03-29T00:53:36.473Z,16.30
2023-03-29T00:56:14.020Z,20.60
2023-03-29T00:58:49.675Z,18.30
2023-03-29T01:01:28.361Z,18.60
2023-03-29T01:04:04.751Z,21.30
2023-03-29T01:06:36.695Z,19.60
2023-03-29T01:09:10.335Z,18.20
2023-03-29T01:11:44.158Z,17.40
2023-03-29T01:14:18.301Z,19.60
2023-03-29T01:16:46.774Z,20.20
2023-03-29T01:19:19.240Z,22.80
2023-03-29T01:21:57.830Z,18.30
2023-03-29T01:24:26.026Z,20.30
2023-03-29T01:27:09.270Z,23.10
2023-03-29T01:29:57.328Z,20.50
2023-03-29T01:32:55.578Z,20.40
2023-03-29T01:35:40.079Z,19.20
2023-03-29T01:38:21.714Z,19.60
2023-03-29T01:40:50.266Z,19.00
2023-03-29T01:43:44.793Z,22.10
2023-03-29T01:46:35.529Z,19.90
2023-03-29T01:49:32.556Z,20.30
2023-03-29T01:52:18.944Z,28.80
2023-03-29T01:54:57.552Z,30.00
2023-03-29T01:57:26.927Z,22.80
2023-03-29T01:59:57.629Z,23.70
2023-03-29T02:02:27.817Z,27.50
2023-03-29T02:04:57.732Z,21.50
2023-03-29T02:07:30.789Z,21.10
2023-03-29T02:09:59.649Z,23.90
2023-03-29T02:12:27.871Z,22.30
2023-03-29T02:14:58.771Z,26.00
2023-03-29T02:17:28.151Z,21.60
2023-03-29T02:20:17.401Z,22.40
2023-03-29T02:23:15.567Z,23.20
2023-03-29T02:25:45.832Z,25.20
2023-03-29T02:28:14.663Z,25.90
2023-03-29T02:30:53.531Z,26.30
2023-03-29T02:33:31.331Z,28.40
2023-03-29T02:36:06.731Z,25.50
2023-03-29T02:38:35.862Z,20.70
2023-03-29T02:41:04.489Z,23.40
2023-03-29T02:43:35.427Z,26.60
2023-03-29T02:46:05.611Z,30.50
2023-03-29T02:48:37.189Z,29.20
2023-03-29T02:51:13.556Z,23.30
2023-03-29T02:53:46.551Z,23.10
2023-03-29T02:56:14.801Z,31.20
2023-03-29T02:58:43.073Z,29.10
2023-03-29T03:01:12.832Z,29.40
2023-03-29T03:03:41.365Z,25.20
2023-03-29T03:06:09.736Z,25.60
2023-03-29T03:08:38.438Z,23.70
2023-03-29T03:11:07.169Z,27.90
2023-03-29T03:13:35.403Z,25.30
2023-03-29T03:16:03.687Z,26.20
2023-03-29T03:18:32.598Z,26.90
2023-03-29T03:21:02.726Z,27.20
2023-03-29T03:23:31.282Z,27.20
2023-03-29T03:25:59.608Z,33.00
2023-03-29T03:28:28.402Z,38.30
2023-03-29T03:30:57.548Z,32.60
2023-03-29T03:33:34.947Z,28.40
2023-03-29T03:36:26.084Z,29.50
2023-03-29T03:38:55.195Z,31.20
2023-03-29T03:41:23.461Z,28.00
2023-03-29T03:43:51.821Z,32.80
2023-03-29T03:46:20.346Z,29.80
2023-03-29T03:48:48.948Z,30.00
2023-03-29T03:51:35.694Z,30.20
2023-03-29T03:54:04.439Z,31.80
2023-03-29T03:56:35.659Z,27.70
2023-03-29T03:59:16.616Z,28.40
2023-03-29T04:02:01.706Z,30.20
2023-03-29T04:04:30.998Z,32.60
2023-03-29T04:07:03.851Z,35.60
2023-03-29T04:09:53.113Z,29.40
2023-03-29T04:12:38.655Z,21.70
2023-03-29T04:15:08.757Z,29.60
2023-03-29T04:17:37.781Z,28.20
2023-03-29T04:20:20.894Z,28.90
2023-03-29T04:22:49.494Z,27.20
2023-03-29T04:25:18.357Z,30.30
2023-03-29T04:27:50.513Z,30.50
2023-03-29T04:30:31.512Z,24.70
2023-03-29T04:33:19.962Z,27.80
2023-03-29T04:35:52.790Z,27.50
2023-03-29T04:38:23.572Z,27.00
2023-03-29T04:40:54.912Z,26.70
2023-03-29T04:43:37.266Z,28.70
2023-03-29T04:46:13.588Z,27.00
2023-03-29T04:49:05.877Z,29.90
2023-03-29T04:51:40.689Z,26.20
2023-03-29T04:54:10.269Z,29.00
2023-03-29T04:59:45.493Z,30.20
2023-03-29T05:02:32.451Z,29.40
2023-03-29T05:05:00.848Z,21.90
2023-03-29T05:07:29.808Z,21.70
2023-03-29T05:09:58.133Z,23.20
2023-03-29T05:12:26.715Z,30.60
2023-03-29T05:14:55.540Z,47.60
2023-03-29T05:17:27.513Z,346.10
2023-03-29T05:19:58.248Z,489.60
2023-03-29T05:22:28.357Z,373.50
2023-03-29T05:24:57.633Z,286.70
2023-03-29T05:27:26.371Z,96.60
2023-03-29T05:30:01.916Z,100.10
2023-03-29T05:32:56.581Z,35.20
2023-03-29T05:35:26.405Z,27.10
2023-03-29T05:37:56.432Z,29.20
2023-03-29T05:40:26.266Z,25.20
2023-03-29T05:43:21.007Z,21.40
2023-03-29T05:45:49.835Z,20.80
2023-03-29T05:48:24.880Z,26.70
2023-03-29T05:50:55.194Z,18.80
2023-03-29T05:53:25.608Z,30.90
2023-03-29T05:55:56.329Z,19.30
2023-03-29T05:58:26.833Z,40.10
2023-03-29T06:00:55.604Z,49.20
2023-03-29T06:03:38.624Z,80.50
2023-03-29T06:06:09.649Z,41.40
2023-03-29T06:08:38.180Z,45.00
2023-03-29T06:11:35.657Z,47.30
2023-03-29T06:14:16.154Z,44.50
2023-03-29T06:16:49.303Z,40.30
2023-03-29T06:19:18.928Z,77.40
2023-03-29T06:21:47.684Z,94.40
2023-03-29T06:24:20.699Z,41.50
2023-03-29T06:26:53.387Z,26.90
2023-03-29T06:29:22.174Z,22.00
2023-03-29T06:31:54.896Z,21.50
2023-03-29T06:34:42.850Z,23.90
2023-03-29T06:37:32.655Z,20.50
2023-03-29T06:40:27.396Z,16.20
2023-03-29T06:42:58.021Z,15.50
2023-03-29T06:45:44.989Z,18.80
2023-03-29T06:48:35.527Z,23.90
2023-03-29T06:51:05.842Z,16.20
2023-03-29T06:53:35.036Z,16.60
2023-03-29T06:56:09.640Z,18.30
2023-03-29T06:58:43.017Z,17.20
2023-03-29T07:01:41.003Z,18.40
2023-03-29T07:04:22.427Z,16.70
2023-03-29T07:07:20.525Z,16.70
2023-03-29T07:09:57.040Z,17.20
2023-03-29T07:12:46.321Z,17.00
2023-03-29T07:15:16.170Z,17.40
2023-03-29T07:18:10.926Z,17.10
2023-03-29T07:20:42.615Z,18.60
2023-03-29T07:23:18.155Z,16.10
2023-03-29T07:28:21.477Z,16.60
2023-03-29T07:30:49.934Z,17.90
2023-03-29T07:33:21.026Z,19.50
2023-03-29T07:36:02.053Z,19.00
2023-03-29T07:38:31.995Z,14.70
2023-03-29T07:41:06.740Z,16.70
2023-03-29T07:43:44.015Z,13.60
2023-03-29T07:46:13.170Z,16.60
2023-03-29T07:48:41.788Z,14.40
2023-03-29T07:51:12.263Z,13.30
2023-03-29T07:53:49.815Z,14.20
2023-03-29T07:56:36.527Z,12.70
2023-03-29T07:59:14.156Z,13.10
2023-03-29T08:01:45.179Z,14.20
2023-03-29T08:04:26.789Z,10.80
2023-03-29T08:07:16.456Z,8.80
2023-03-29T08:10:24.608Z,14.30
2023-03-29T08:13:27.536Z,12.40
2023-03-29T08:16:22.256Z,10.50
2023-03-29T08:18:56.662Z,16.70
2023-03-29T08:21:28.024Z,11.30
2023-03-29T08:23:56.435Z,16.20
2023-03-29T08:26:54.629Z,13.00
2023-03-29T08:29:23.174Z,13.20
2023-03-29T08:31:51.690Z,12.00
2023-03-29T08:34:20.336Z,12.80
2023-03-29T08:37:09.847Z,10.20
2023-03-29T08:39:42.466Z,9.30
2023-03-29T08:42:37.842Z,11.20
2023-03-29T08:45:22.404Z,14.20
2023-03-29T08:48:26.207Z,10.60
2023-03-29T08:51:03.416Z,11.10
2023-03-29T08:53:45.215Z,11.30
2023-03-29T08:56:25.095Z,9.90
2023-03-29T08:59:34.688Z,9.40
2023-03-29T09:02:17.727Z,10.40
2023-03-29T09:04:48.366Z,10.60
2023-03-29T09:07:39.172Z,9.10
2023-03-29T09:10:15.378Z,7.80
2023-03-29T09:13:11.663Z,8.30
2023-03-29T09:16:13.827Z,9.90
2023-03-29T09:18:42.880Z,11.30
2023-03-29T09:21:41.955Z,11.40
2023-03-29T09:24:19.178Z,6.80
2023-03-29T09:27:05.587Z,8.00
2023-03-29T09:30:04.720Z,10.20
2023-03-29T09:33:21.936Z,7.10
2023-03-29T09:36:14.630Z,23.10
2023-03-29T09:38:51.072Z,14.10
2023-03-29T09:41:26.804Z,6.90
2023-03-29T09:43:58.284Z,11.90
2023-03-29T09:46:37.450Z,10.90
2023-03-29T09:49:11.134Z,10.10
2023-03-29T09:51:42.024Z,7.00
2023-03-29T09:54:12.598Z,10.20
2023-03-29T09:57:07.265Z,10.40
2023-03-29T09:59:36.348Z,9.20
2023-03-29T10:02:10.305Z,7.50
2023-03-29T10:04:39.621Z,6.70
2023-03-29T10:07:16.194Z,7.70
2023-03-29T10:09:46.154Z,7.10
2023-03-29T10:12:18.148Z,7.20
2023-03-29T10:14:52.987Z,7.00
2023-03-29T10:17:25.912Z,6.40
2023-03-29T10:20:00.931Z,6.60
2023-03-29T10:22:41.022Z,8.10
2023-03-29T10:25:18.656Z,10.40
2023-03-29T10:27:47.945Z,4.80
2023-03-29T10:30:23.119Z,8.40
2023-03-29T10:32:58.564Z,13.80
2023-03-29T10:35:34.916Z,6.80
2023-03-29T10:38:07.776Z,7.10
2023-03-29T10:40:45.273Z,5.80
2023-03-29T10:43:22.804Z,7.20
2023-03-29T10:45:54.733Z,8.70
2023-03-29T10:48:34.448Z,10.30
2023-03-29T10:51:05.635Z,12.90
2023-03-29T10:53:36.532Z,7.50
2023-03-29T10:56:11.283Z,9.10
2023-03-29T10:59:01.227Z,9.00
2023-03-29T11:01:34.769Z,7.40
2023-03-29T11:04:16.248Z,9.80
2023-03-29T11:06:54.548Z,10.30
2023-03-29T11:09:41.483Z,6.90
2023-03-29T11:12:38.163Z,4.60
2023-03-29T11:15:34.411Z,10.40
2023-03-29T11:18:14.575Z,8.40
2023-03-29T11:20:53.865Z,31.60
2023-03-29T11:23:31.879Z,16.20
2023-03-29T11:26:23.395Z,7.50
2023-03-29T11:29:04.586Z,5.50
2023-03-29T11:32:14.635Z,5.40
2023-03-29T11:35:06.044Z,6.80
2023-03-29T11:37:52.350Z,5.60
2023-03-29T11:40:39.466Z,7.60
2023-03-29T11:43:28.006Z,6.70
2023-03-29T11:46:19.186Z,6.80
2023-03-29T11:48:54.295Z,8.00
2023-03-29T11:51:27.991Z,6.20
2023-03-29T11:54:04.530Z,7.90
2023-03-29T11:56:51.358Z,6.90
2023-03-29T11:59:36.475Z,6.90
2023-03-29T12:02:07.633Z,9.00
2023-03-29T12:04:43.631Z,7.70
2023-03-29T12:07:17.876Z,8.90
2023-03-29T12:09:52.931Z,5.80
2023-03-29T12:12:38.904Z,4.90
2023-03-29T12:15:13.787Z,8.30
2023-03-29T12:17:47.098Z,5.20
2023-03-29T12:20:28.377Z,5.50
2023-03-29T12:22:59.610Z,5.60
2023-03-29T12:25:40.925Z,8.00
2023-03-29T12:28:15.261Z,8.60
2023-03-29T12:31:31.650Z,5.50
2023-03-29T12:37:11.556Z,4.60
2023-03-29T12:40:17.734Z,5.80
2023-03-29T12:43:30.174Z,5.60
2023-03-29T12:46:26.588Z,8.60
2023-03-29T12:48:58.330Z,9.30
2023-03-29T12:51:35.117Z,7.80
2023-03-29T12:54:17.136Z,8.20
2023-03-29T12:56:58.350Z,7.70
2023-03-29T12:59:44.676Z,6.00
2023-03-29T13:02:13.795Z,4.40
2023-03-29T13:05:00.327Z,5.20
2023-03-29T13:07:33.007Z,4.80
2023-03-29T13:10:09.675Z,4.70
2023-03-29T13:12:42.469Z,7.90
2023-03-29T13:15:19.654Z,6.20
2023-03-29T13:18:12.468Z,6.40
2023-03-29T13:20:52.403Z,5.30
2023-03-29T13:23:39.207Z,9.80
2023-03-29T13:26:28.525Z,5.80
2023-03-29T13:29:15.609Z,5.10
2023-03-29T13:32:00.107Z,4.20
2023-03-29T13:34:44.805Z,7.20
2023-03-29T13:37:37.546Z,5.10
2023-03-29T13:40:28.402Z,3.90
2023-03-29T13:43:08.751Z,5.20
2023-03-29T13:45:38.735Z,4.30
2023-03-29T13:48:29.681Z,4.90
2023-03-29T13:51:01.687Z,8.80
2023-03-29T13:53:44.276Z,4.60
2023-03-29T13:56:19.914Z,7.00
2023-03-29T13:58:52.930Z,9.30
2023-03-29T14:01:46.015Z,6.00
2023-03-29T14:04:21.506Z,6.30
2023-03-29T14:06:53.276Z,4.20
2023-03-29T14:09:31.651Z,6.90
2023-03-29T14:12:01.264Z,8.20
2023-03-29T14:14:32.253Z,4.50
2023-03-29T14:17:01.356Z,12.40
2023-03-29T14:19:38.195Z,5.90
2023-03-29T14:22:13.849Z,6.70
2023-03-29T14:24:49.285Z,8.30
2023-03-29T14:27:19.181Z,4.40
2023-03-29T14:29:49.897Z,4.70
2023-03-29T14:32:20.590Z,9.50
2023-03-29T14:34:50.882Z,8.40
2023-03-29T14:37:26.717Z,8.90
2023-03-29T14:39:56.628Z,6.40
2023-03-29T14:42:27.072Z,6.20
2023-03-29T14:45:04.227Z,8.60
2023-03-29T14:47:33.936Z,9.20
2023-03-29T14:50:03.962Z,4.70
2023-03-29T14:52:33.739Z,6.50
2023-03-29T14:55:04.168Z,4.80
2023-03-29T14:57:36.460Z,4.70
2023-03-29T15:00:26.084Z,7.50
2023-03-29T15:02:57.637Z,8.60
2023-03-29T15:05:38.824Z,5.50
2023-03-29T15:08:13.553Z,3.60
2023-03-29T15:10:44.882Z,5.20
2023-03-29T15:13:19.971Z,5.40
2023-03-29T15:15:52.877Z,5.20
2023-03-29T15:18:27.201Z,7.80
2023-03-29T15:20:55.702Z,6.70
2023-03-29T15:23:25.673Z,7.50
2023-03-29T15:26:14.252Z,5.10
2023-03-29T15:29:00.482Z,6.20
2023-03-29T15:31:38.148Z,6.50
2023-03-29T15:34:09.926Z,7.20
2023-03-29T15:36:46.375Z,22.40
2023-03-29T15:39:17.204Z,14.60
2023-03-29T15:41:48.146Z,6.80
2023-03-29T15:44:19.921Z,5.40
2023-03-29T15:46:48.346Z,8.00
2023-03-29T15:49:16.820Z,7.70
2023-03-29T15:51:45.109Z,9.30
2023-03-29T15:54:13.293Z,7.70
2023-03-29T15:56:50.229Z,63.50
2023-03-29T15:59:18.828Z,33.80
2023-03-29T16:01:47.608Z,17.00
2023-03-29T16:04:18.388Z,14.70
2023-03-29T16:06:49.489Z,19.50
2023-03-29T16:09:18.050Z,11.80
2023-03-29T16:11:47.444Z,11.80
2023-03-29T16:14:27.389Z,8.40
2023-03-29T16:16:57.329Z,9.50
2023-03-29T16:19:26.935Z,23.90
2023-03-29T16:21:55.757Z,17.90
2023-03-29T16:24:27.037Z,15.00
2023-03-29T16:26:56.972Z,14.10
2023-03-29T16:29:25.787Z,27.00
2023-03-29T16:31:54.551Z,25.00
2023-03-29T16:34:23.845Z,17.70
2023-03-29T16:36:53.171Z,13.50
2023-03-29T16:39:21.743Z,10.50
2023-03-29T16:41:50.400Z,10.50
2023-03-29T16:44:23.741Z,10.50
2023-03-29T16:46:57.557Z,12.40
2023-03-29T16:49:26.067Z,14.10
2023-03-29T16:51:54.432Z,10.90
2023-03-29T16:54:25.780Z,10.30
2023-03-29T16:56:54.370Z,9.90
2023-03-29T16:59:22.904Z,8.90
2023-03-29T17:01:51.318Z,11.50
2023-03-29T17:04:20.082Z,7.20
2023-03-29T17:06:48.770Z,10.60
2023-03-29T17:09:17.724Z,9.40
2023-03-29T17:11:46.419Z,11.60
2023-03-29T17:14:14.902Z,11.00
2023-03-29T17:16:43.312Z,13.00
2023-03-29T17:19:12.252Z,15.10
2023-03-29T17:21:41.224Z,12.80
2023-03-29T17:24:09.958Z,15.30
2023-03-29T17:26:38.610Z,13.80
2023-03-29T17:29:07.209Z,14.30
2023-03-29T17:31:36.666Z,12.40
2023-03-29T17:34:05.138Z,15.60
2023-03-29T17:36:33.872Z,17.60
2023-03-29T17:39:02.936Z,22.00
2023-03-29T17:41:31.482Z,16.90
2023-03-29T17:43:59.788Z,15.10
2023-03-29T17:46:28.570Z,14.50
2023-03-29T17:48:59.168Z,15.30
2023-03-29T17:51:27.838Z,14.90
2023-03-29T17:53:57.143Z,13.60
2023-03-29T17:56:26.367Z,14.10
2023-03-29T17:58:54.821Z,13.50
2023-03-29T18:01:23.115Z,16.40
2023-03-29T18:03:51.763Z,16.00
2023-03-29T18:06:20.990Z,14.40
2023-03-29T18:08:49.408Z,18.50
2023-03-29T18:11:22.813Z,19.50
2023-03-29T18:13:52.905Z,17.40
2023-03-29T18:16:22.128Z,17.10
2023-03-29T18:18:51.075Z,34.00
2023-03-29T18:21:19.516Z,30.40
2023-03-29T18:23:49.808Z,27.40
2023-03-29T18:26:22.869Z,24.20
2023-03-29T18:28:51.638Z,27.30
2023-03-29T18:31:20.300Z,21.00
2023-03-29T18:33:48.635Z,23.60
2023-03-29T18:36:17.141Z,58.50
2023-03-29T18:38:45.964Z,79.70
2023-03-29T18:41:14.441Z,36.60
2023-03-29T18:43:44.250Z,23.50
2023-03-29T18:46:12.686Z,17.80
2023-03-29T18:48:41.777Z,13.50
2023-03-29T18:51:11.589Z,16.30
2023-03-29T18:53:42.001Z,20.90
2023-03-29T18:56:10.324Z,25.20
2023-03-29T18:58:38.585Z,23.90
2023-03-29T19:01:07.438Z,27.80
2023-03-29T19:03:36.398Z,18.90
2023-03-29T19:06:05.137Z,22.90
2023-03-29T19:08:36.646Z,21.50
2023-03-29T19:11:07.769Z,26.30
2023-03-29T19:13:36.836Z,23.80
2023-03-29T19:16:06.026Z,22.70
2023-03-29T19:18:34.667Z,20.80
2023-03-29T19:21:03.036Z,17.10
2023-03-29T19:23:31.481Z,16.10
2023-03-29T19:26:02.875Z,19.70
2023-03-29T19:28:32.867Z,22.80
2023-03-29T19:31:02.837Z,40.20
2023-03-29T19:33:31.712Z,31.40
2023-03-29T19:35:59.968Z,25.20
2023-03-29T19:38:28.481Z,50.00
2023-03-29T19:40:56.759Z,45.90
2023-03-29T19:43:25.939Z,48.30
2023-03-29T19:45:54.141Z,59.60
2023-03-29T19:48:24.714Z,52.30
2023-03-29T19:50:53.188Z,63.10
2023-03-29T19:53:23.249Z,61.70
2023-03-29T19:55:52.429Z,47.40
2023-03-29T19:58:21.705Z,44.10
2023-03-29T20:00:50.940Z,46.20
2023-03-29T20:03:21.990Z,33.70
2023-03-29T20:05:50.937Z,23.60
2023-03-29T20:08:19.145Z,54.20
2023-03-29T20:10:47.574Z,51.00
2023-03-29T20:13:21.815Z,37.70
2023-03-29T20:15:56.214Z,33.10
2023-03-29T20:18:24.500Z,32.20
2023-03-29T20:20:52.726Z,36.80
2023-03-29T20:23:21.085Z,25.20
2023-03-29T20:25:49.417Z,20.70
2023-03-29T20:28:18.457Z,19.90
2023-03-29T20:30:51.096Z,21.00
2023-03-29T20:33:20.944Z,15.70
2023-03-29T20:35:49.422Z,21.10
2023-03-29T20:38:17.677Z,25.70
2023-03-29T20:40:45.806Z,22.90
2023-03-29T20:43:18.387Z,23.80
2023-03-29T20:45:53.829Z,24.90
2023-03-29T20:48:24.356Z,24.20
2023-03-29T20:50:52.619Z,28.70
2023-03-29T20:53:20.882Z,27.90
2023-03-29T20:55:49.279Z,26.20
2023-03-29T20:58:17.674Z,30.80
2023-03-29T21:00:48.532Z,20.90
2023-03-29T21:03:17.848Z,20.70
2023-03-29T21:05:46.304Z,20.40
2023-03-29T21:08:18.210Z,21.00
2023-03-29T21:10:47.879Z,22.00
2023-03-29T21:13:18.307Z,18.50
2023-03-29T21:15:47.267Z,19.70
2023-03-29T21:18:15.867Z,18.50
2023-03-29T21:20:44.328Z,25.70
2023-03-29T21:23:13.351Z,61.50
2023-03-29T21:25:41.645Z,77.80
2023-03-29T21:28:10.689Z,47.00
2023-03-29T21:30:39.606Z,28.70
2023-03-29T21:33:07.829Z,39.90
2023-03-29T21:35:36.132Z,82.10
2023-03-29T21:38:04.511Z,113.00
2023-03-29T21:40:32.745Z,163.80
2023-03-29T21:43:01.020Z,135.70
2023-03-29T21:45:29.314Z,282.80
2023-03-29T21:47:57.566Z,189.80
2023-03-29T21:50:25.871Z,140.00
2023-03-29T21:52:54.156Z,164.70
2023-03-29T21:55:22.308Z,250.60
2023-03-29T21:57:50.522Z,382.20
2023-03-29T22:00:18.858Z,231.40
2023-03-29T22:02:47.075Z,213.00
2023-03-29T22:05:16.244Z,181.90
2023-03-29T22:07:44.696Z,264.40
2023-03-29T22:10:13.161Z,297.20
2023-03-29T22:12:41.430Z,190.60
2023-03-29T22:15:12.090Z,179.40
2023-03-29T22:17:42.823Z,132.30
2023-03-29T22:20:13.327Z,147.00
2023-03-29T22:22:52.691Z,131.60
2023-03-29T22:25:21.334Z,128.70
2023-03-29T22:27:49.948Z,76.70
2023-03-29T22:30:18.328Z,118.80
2023-03-29T22:32:46.661Z,97.50
2023-03-29T22:35:15.015Z,104.20
2023-03-29T22:37:44.319Z,109.30
2023-03-29T22:40:13.253Z,70.70
2023-03-29T22:42:41.847Z,37.20
2023-03-29T22:45:11.007Z,27.00
2023-03-29T22:47:39.398Z,25.70
2023-03-29T22:50:08.291Z,24.70
2023-03-29T22:52:36.550Z,24.70
2023-03-29T22:55:05.027Z,27.30
2023-03-29T22:57:33.328Z,30.00
2023-03-29T23:00:01.812Z,76.20
2023-03-29T23:02:30.067Z,49.90
2023-03-29T23:04:58.327Z,42.10
2023-03-29T23:07:28.161Z,36.80
2023-03-29T23:09:56.646Z,33.50
2023-03-29T23:12:24.886Z,44.80
2023-03-29T23:14:53.185Z,38.40
2023-03-29T23:17:21.441Z,43.50
2023-03-29T23:19:49.609Z,51.40
2023-03-29T23:22:17.713Z,78.10
2023-03-29T23:24:47.327Z,48.20
2023-03-29T23:27:15.472Z,22.50
2023-03-29T23:29:45.317Z,27.50
2023-03-29T23:32:14.349Z,28.90
2023-03-29T23:34:42.620Z,29.20
2023-03-29T23:37:10.851Z,28.40
2023-03-29T23:39:39.487Z,41.30
2023-03-29T23:42:07.867Z,51.70
2023-03-29T23:44:36.154Z,36.30
2023-03-29T23:47:04.554Z,40.10
2023-03-29T23:49:32.937Z,25.10
2023-03-29T23:52:02.645Z,38.10
2023-03-29T23:54:31.841Z,33.90
2023-03-29T23:57:00.326Z,37.20
2023-03-29T23:59:30.681Z,41.90
